Time;durP1;ratioP1;P1;durP2;ratioP2;P2;SDS_P1;SDS_P2;PMS_P1;PMS_P2;Temp;Humidity;BMP_temperature;BMP_pressure;BME280_temperature;BME280_humidity;BME280_pressure;Samples;Min_cycle;Max_cycle;Signal;HPM_P1;HPM_P2
2023/06/13 00:00:44;;;;;;;;;;;;;;;22.12;77.61;99149.50;5092174;28;20037;-42
2023/06/13 00:03:11;;;;;;;;;;;;;;;22.15;77.30;99157.06;5092211;28;19912;-43
2023/06/13 00:05:37;;;;;;;;;;;;;;;22.22;76.95;99154.00;5092303;28;19912;-42
2023/06/13 00:08:02;;;;;;;;;;;;;;;22.28;76.83;99150.13;5091892;28;19919;-42
2023/06/13 00:10:28;;;;;;;;;;;;;;;22.38;76.73;99147.25;5092247;28;19916;-43
2023/06/13 00:12:53;;;;;;;;;;;;;;;22.49;76.45;99152.53;5092091;28;19912;-42
2023/06/13 00:15:18;;;;;;;;;;;;;;;22.50;76.05;99148.69;5091873;28;19913;-45
2023/06/13 00:17:45;;;;;;;;;;;;;;;22.57;75.91;99151.84;5092060;28;19922;-42
2023/06/13 00:20:11;;;;;;;;;;;;;;;22.61;76.01;99147.41;5091953;28;19912;-42
2023/06/13 00:22:37;;;;;;;;;;;;;;;22.57;75.47;99144.50;5091688;28;19919;-42
2023/06/13 00:25:02;;;;;;;;;;;;;;;22.63;75.47;99132.44;5091733;28;19912;-42
2023/06/13 00:27:27;;;;;;;;;;;;;;;22.69;75.71;99135.88;5091696;28;19936;-43
2023/06/13 00:29:53;;;;;;;;;;;;;;;22.70;76.12;99136.72;5091818;28;20278;-43
2023/06/13 00:32:18;;;;;;;;;;;;;;;22.77;76.02;99131.66;5091380;28;19924;-44
2023/06/13 00:34:44;;;;;;;;;;;;;;;22.85;75.61;99139.13;5091434;28;19919;-43
2023/06/13 00:37:09;;;;;;;;;;;;;;;22.86;75.21;99135.31;5091322;28;19920;-43
2023/06/13 00:39:38;;;;;;;;;;;;;;;22.93;74.93;99135.72;5091486;28;19984;-43
2023/06/13 00:42:03;;;;;;;;;;;;;;;23.00;75.09;99140.78;5091529;28;19912;-43
2023/06/13 00:44:28;;;;;;;;;;;;;;;23.05;74.80;99137.16;5091715;28;19936;-43
2023/06/13 00:46:55;;;;;;;;;;;;;;;23.10;74.98;99134.38;5091274;28;20011;-43
2023/06/13 00:49:21;;;;;;;;;;;;;;;23.13;74.85;99134.56;5091433;28;19912;-44
2023/06/13 00:51:46;;;;;;;;;;;;;;;23.19;74.52;99132.56;5091855;28;19996;-45
2023/06/13 00:54:13;;;;;;;;;;;;;;;23.18;74.40;99139.88;5091865;28;19980;-42
2023/06/13 00:56:40;;;;;;;;;;;;;;;23.18;73.96;99130.94;5092167;28;19919;-43
2023/06/13 00:59:07;;;;;;;;;;;;;;;23.13;73.17;99137.28;5092049;28;19920;-43
2023/06/13 01:01:33;;;;;;;;;;;;;;;23.08;73.46;99131.16;5091745;28;19912;-43
2023/06/13 01:03:59;;;;;;;;;;;;;;;23.06;73.04;99127.94;5092324;28;19912;-43
2023/06/13 01:06:28;;;;;;;;;;;;;;;22.73;74.10;99126.06;5091657;28;19919;-43
2023/06/13 01:08:58;;;;;;;;;;;;;;;22.54;74.35;99123.41;5090952;28;19920;-44
2023/06/13 01:11:38;;;;;;;;;;;;;;;22.39;75.95;99123.66;5071512;28;20355;-43
2023/06/13 01:14:03;;;;;;;;;;;;;;;22.45;75.69;99120.56;5071655;28;19913;-44
2023/06/13 01:16:47;;;;;;;;;;;;;;;22.37;76.68;99117.72;5071622;28;19920;-42
2023/06/13 01:19:40;;;;;;;;;;;;;;;22.32;76.69;99115.91;5084405;28;20336;-43
2023/06/13 01:22:25;;;;;;;;;;;;;;;21.77;79.31;99110.25;5088806;28;19912;-42
2023/06/13 01:25:09;;;;;;;;;;;;;;;21.57;80.25;99116.72;5087289;28;20277;-43
2023/06/13 01:27:39;;;;;;;;;;;;;;;21.69;80.60;99119.03;5091077;28;19968;-43
2023/06/13 01:30:05;;;;;;;;;;;;;;;21.33;81.52;99116.75;5091853;28;19916;-42
2023/06/13 01:32:32;;;;;;;;;;;;;;;21.48;81.06;99122.00;5091331;28;19928;-42
2023/06/13 01:34:58;;;;;;;;;;;;;;;21.67;79.93;99122.03;5091520;28;20348;-42
2023/06/13 01:37:23;;;;;;;;;;;;;;;21.54;80.09;99117.31;5091202;28;19912;-42
2023/06/13 01:39:49;;;;;;;;;;;;;;;21.67;80.24;99116.59;5091350;28;19919;-43
2023/06/13 01:42:14;;;;;;;;;;;;;;;21.76;79.37;99114.84;5091376;28;19912;-43
2023/06/13 01:44:39;;;;;;;;;;;;;;;21.98;78.52;99110.75;5091407;28;19919;-42
2023/06/13 01:47:24;;;;;;;;;;;;;;;21.94;78.25;99107.81;5091360;28;19912;-43
2023/06/13 01:49:52;;;;;;;;;;;;;;;21.81;79.52;99113.97;5091334;28;19918;-42
2023/06/13 01:52:17;;;;;;;;;;;;;;;21.57;80.05;99114.03;5090954;28;19916;-42
2023/06/13 01:54:45;;;;;;;;;;;;;;;21.21;81.93;99117.16;5091305;28;19918;-42
2023/06/13 01:57:15;;;;;;;;;;;;;;;21.35;81.85;99112.66;5091192;28;19955;-42
2023/06/13 01:59:42;;;;;;;;;;;;;;;21.43;81.47;99125.53;5090908;28;19992;-42
2023/06/13 02:02:08;;;;;;;;;;;;;;;21.44;81.73;99120.97;5090814;28;20015;-42
2023/06/13 02:04:40;;;;;;;;;;;;;;;21.58;80.88;99123.75;5091243;28;20015;-42
2023/06/13 02:07:06;;;;;;;;;;;;;;;21.45;81.40;99126.06;5090897;28;19974;-43
2023/06/13 02:09:31;;;;;;;;;;;;;;;20.81;84.66;99127.31;5090968;28;19943;-42
2023/06/13 02:11:56;;;;;;;;;;;;;;;21.18;82.94;99125.84;5091219;28;19932;-43
2023/06/13 02:14:23;;;;;;;;;;;;;;;21.33;82.09;99128.38;5091032;28;20007;-43
2023/06/13 02:16:48;;;;;;;;;;;;;;;21.43;81.26;99125.53;5090911;28;19921;-43
2023/06/13 02:19:13;;;;;;;;;;;;;;;21.56;81.13;99132.16;5091213;28;19912;-43
2023/06/13 02:21:44;;;;;;;;;;;;;;;21.35;81.82;99128.09;5090762;28;20293;-42
2023/06/13 02:24:09;;;;;;;;;;;;;;;21.54;80.94;99120.84;5090763;28;19919;-43
2023/06/13 02:26:39;;;;;;;;;;;;;;;21.41;81.73;99116.91;5091364;28;20288;-43
2023/06/13 02:29:05;;;;;;;;;;;;;;;21.10;82.85;99132.72;5090907;28;20075;-43
2023/06/13 02:31:30;;;;;;;;;;;;;;;20.40;86.59;99125.78;5090709;28;19968;-43
2023/06/13 02:33:56;;;;;;;;;;;;;;;20.38;87.94;99127.97;5090603;28;20406;-42
2023/06/13 02:36:21;;;;;;;;;;;;;;;20.35;87.19;99133.13;5090294;28;19924;-42
2023/06/13 02:38:46;;;;;;;;;;;;;;;20.25;88.06;99136.72;5091843;28;19915;-42
2023/06/13 02:41:11;;;;;;;;;;;;;;;20.23;87.85;99137.00;5094298;28;19912;-42
2023/06/13 02:43:37;;;;;;;;;;;;;;;19.95;87.63;99143.13;5094608;28;20302;-42
2023/06/13 02:46:03;;;;;;;;;;;;;;;19.56;91.59;99144.66;5094264;28;20310;-43
2023/06/13 02:48:28;;;;;;;;;;;;;;;20.20;86.89;99142.16;5094300;28;19912;-42
2023/06/13 02:50:54;;;;;;;;;;;;;;;19.77;88.00;99150.78;5093381;28;19916;-42
2023/06/13 02:53:20;;;;;;;;;;;;;;;20.02;87.54;99147.13;5094300;28;20507;-42
2023/06/13 02:55:46;;;;;;;;;;;;;;;20.31;85.30;99155.31;5094096;28;19916;-42
2023/06/13 02:58:12;;;;;;;;;;;;;;;20.57;83.58;99140.78;5094074;28;20019;-43
2023/06/13 03:00:37;;;;;;;;;;;;;;;20.69;82.94;99155.56;5094068;28;19947;-42
2023/06/13 03:03:03;;;;;;;;;;;;;;;20.80;81.75;99158.97;5094120;28;19938;-42
2023/06/13 03:05:28;;;;;;;;;;;;;;;20.60;81.81;99159.97;5093992;28;20299;-41
2023/06/13 03:07:58;;;;;;;;;;;;;;;20.40;82.89;99152.00;5093822;28;20053;-41
2023/06/13 03:10:24;;;;;;;;;;;;;;;20.86;80.99;99160.53;5093845;28;19916;-43
2023/06/13 03:12:49;;;;;;;;;;;;;;;21.07;79.18;99155.72;5093604;28;20280;-43
2023/06/13 03:15:16;;;;;;;;;;;;;;;21.17;78.18;99171.06;5093921;28;19918;-42
2023/06/13 03:17:42;;;;;;;;;;;;;;;21.13;77.61;99166.47;5093690;28;20280;-42
2023/06/13 03:20:08;;;;;;;;;;;;;;;21.01;78.67;99164.97;5093532;28;20374;-42
2023/06/13 03:22:33;;;;;;;;;;;;;;;20.74;80.09;99168.22;5093374;28;19919;-42
2023/06/13 03:25:04;;;;;;;;;;;;;;;20.57;79.16;99165.09;5093368;28;19914;-42
2023/06/13 03:27:31;;;;;;;;;;;;;;;20.11;80.65;99158.16;5093416;28;19963;-42
2023/06/13 03:29:57;;;;;;;;;;;;;;;19.87;82.29;99160.72;5093305;28;19980;-41
2023/06/13 03:32:22;;;;;;;;;;;;;;;19.95;81.80;99156.63;5093035;28;19928;-42
2023/06/13 03:34:47;;;;;;;;;;;;;;;19.99;81.85;99155.81;5093367;28;20310;-41
2023/06/13 03:37:14;;;;;;;;;;;;;;;20.03;81.05;99156.03;5092601;28;20007;-41
2023/06/13 03:39:39;;;;;;;;;;;;;;;20.12;81.61;99159.75;5092810;28;19919;-41
2023/06/13 03:42:04;;;;;;;;;;;;;;;20.18;80.68;99163.22;5093287;28;19912;-42
2023/06/13 03:44:30;;;;;;;;;;;;;;;20.50;79.55;99157.31;5093316;28;19947;-42
2023/06/13 03:46:56;;;;;;;;;;;;;;;20.19;80.17;99165.66;5093094;28;20332;-42
2023/06/13 03:49:24;;;;;;;;;;;;;;;20.24;80.18;99159.44;5091678;28;19927;-41
2023/06/13 03:51:50;;;;;;;;;;;;;;;20.53;78.96;99161.38;5093280;28;20039;-43
2023/06/13 03:54:15;;;;;;;;;;;;;;;20.45;78.43;99166.28;5093065;28;20436;-42
2023/06/13 03:56:41;;;;;;;;;;;;;;;20.41;78.19;99167.09;5092971;28;19912;-42
2023/06/13 03:59:06;;;;;;;;;;;;;;;20.63;77.89;99170.19;5092866;28;20304;-42
2023/06/13 04:01:31;;;;;;;;;;;;;;;20.62;76.96;99170.47;5092404;28;19951;-42
2023/06/13 04:03:57;;;;;;;;;;;;;;;20.46;78.22;99169.78;5092823;28;19912;-41
2023/06/13 04:06:22;;;;;;;;;;;;;;;20.86;76.67;99175.94;5092825;28;20408;-41
2023/06/13 04:08:47;;;;;;;;;;;;;;;20.56;77.23;99171.59;5092851;28;20015;-40
2023/06/13 04:11:12;;;;;;;;;;;;;;;20.83;76.48;99177.34;5092653;28;19955;-40
2023/06/13 04:13:38;;;;;;;;;;;;;;;21.01;75.41;99185.81;5092704;28;19919;-43
2023/06/13 04:16:03;;;;;;;;;;;;;;;21.24;74.95;99186.94;5092719;28;19912;-41
2023/06/13 04:18:29;;;;;;;;;;;;;;;21.03;75.06;99187.13;5092350;28;20391;-42
2023/06/13 04:20:55;;;;;;;;;;;;;;;20.89;75.55;99189.72;5092448;28;20463;-42
2023/06/13 04:23:21;;;;;;;;;;;;;;;21.16;74.96;99192.97;5092533;28;20023;-42
2023/06/13 04:25:47;;;;;;;;;;;;;;;21.12;74.84;99198.16;5092839;28;19919;-41
2023/06/13 04:28:13;;;;;;;;;;;;;;;21.26;74.38;99195.56;5092328;28;20337;-42
2023/06/13 04:30:40;;;;;;;;;;;;;;;21.68;73.34;99196.72;5091817;28;19924;-41
2023/06/13 04:33:13;;;;;;;;;;;;;;;21.83;71.99;99196.50;5092017;28;19977;-41
2023/06/13 04:35:44;;;;;;;;;;;;;;;21.80;70.60;99197.13;5092123;28;19916;-42
2023/06/13 04:38:10;;;;;;;;;;;;;;;21.67;72.78;99190.50;5091364;28;20295;-42
2023/06/13 04:40:37;;;;;;;;;;;;;;;21.80;72.21;99202.53;5092023;28;19922;-42
2023/06/13 04:43:05;;;;;;;;;;;;;;;21.84;71.41;99202.75;5091929;28;19939;-42
2023/06/13 04:45:30;;;;;;;;;;;;;;;21.99;71.16;99205.25;5091637;28;19920;-42
2023/06/13 04:47:57;;;;;;;;;;;;;;;22.02;71.16;99204.66;5092108;28;19999;-42
2023/06/13 04:50:24;;;;;;;;;;;;;;;21.58;72.20;99207.69;5091538;28;20332;-37
2023/06/13 04:52:53;;;;;;;;;;;;;;;21.72;72.59;99210.47;5090743;28;19920;-37
2023/06/13 04:55:20;;;;;;;;;;;;;;;21.19;72.67;99209.44;5091369;28;19919;-37
2023/06/13 04:57:46;;;;;;;;;;;;;;;20.72;74.52;99205.56;5091308;28;19918;-37
2023/06/13 05:00:11;;;;;;;;;;;;;;;20.88;74.35;99211.63;5091137;28;19998;-36
2023/06/13 05:02:41;;;;;;;;;;;;;;;21.24;73.12;99213.97;5090245;28;20016;-36
2023/06/13 05:05:07;;;;;;;;;;;;;;;21.43;72.39;99216.75;5090889;28;20020;-35
2023/06/13 05:07:32;;;;;;;;;;;;;;;21.42;72.67;99226.78;5091437;28;19944;-36
2023/06/13 05:09:57;;;;;;;;;;;;;;;21.97;72.04;99228.31;5091179;28;19912;-36
2023/06/13 05:12:23;;;;;;;;;;;;;;;22.18;70.58;99221.53;5090607;28;19962;-37
2023/06/13 05:14:49;;;;;;;;;;;;;;;22.27;69.03;99215.47;5101756;28;19919;-37
2023/06/13 05:17:16;;;;;;;;;;;;;;;21.96;70.30;99234.84;5091365;28;19912;-36
2023/06/13 05:19:41;;;;;;;;;;;;;;;21.58;72.21;99221.22;5091795;28;20371;-36
2023/06/13 05:22:07;;;;;;;;;;;;;;;21.78;71.55;99226.38;5089290;28;19999;-36
2023/06/13 05:24:33;;;;;;;;;;;;;;;22.24;70.58;99233.09;5088561;28;19912;-36
2023/06/13 05:26:58;;;;;;;;;;;;;;;22.06;70.59;99234.69;5090213;28;19923;-36
2023/06/13 05:29:24;;;;;;;;;;;;;;;22.20;69.93;99240.19;5090645;28;19959;-37
2023/06/13 05:31:50;;;;;;;;;;;;;;;22.53;69.41;99246.50;5089716;28;19924;-36
2023/06/13 05:34:17;;;;;;;;;;;;;;;22.65;69.02;99238.72;5089725;28;20220;-36
2023/06/13 05:36:42;;;;;;;;;;;;;;;22.79;68.38;99240.66;5088847;28;19951;-36
2023/06/13 05:39:08;;;;;;;;;;;;;;;22.90;68.14;99235.88;5088865;28;19912;-36
2023/06/13 05:41:33;;;;;;;;;;;;;;;22.81;68.14;99238.50;5088982;28;19912;-36
2023/06/13 05:43:59;;;;;;;;;;;;;;;22.28;70.04;99244.19;5089180;28;19920;-35
2023/06/13 05:46:24;;;;;;;;;;;;;;;22.66;69.40;99253.09;5088819;28;20360;-36
2023/06/13 05:48:50;;;;;;;;;;;;;;;22.39;70.52;99245.63;5089475;28;19919;-36
2023/06/13 05:51:15;;;;;;;;;;;;;;;22.37;72.66;99254.06;5089657;28;20406;-36
2023/06/13 05:53:40;;;;;;;;;;;;;;;22.79;70.59;99252.34;5089701;28;20299;-37
2023/06/13 05:56:06;;;;;;;;;;;;;;;22.97;68.52;99256.09;5087956;28;19943;-37
2023/06/13 05:58:31;;;;;;;;;;;;;;;22.59;71.22;99258.88;5090104;28;19916;-36
2023/06/13 06:00:57;;;;;;;;;;;;;;;23.15;69.51;99256.38;5090515;28;20014;-37
2023/06/13 06:03:22;;;;;;;;;;;;;;;23.28;68.15;99252.88;5090505;28;20109;-36
2023/06/13 06:05:47;;;;;;;;;;;;;;;23.52;66.93;99249.19;5090567;28;19920;-36
2023/06/13 06:08:13;;;;;;;;;;;;;;;23.55;66.88;99243.97;5090274;28;19912;-36
2023/06/13 06:10:39;;;;;;;;;;;;;;;23.73;65.49;99255.81;5090034;28;19982;-36
2023/06/13 06:13:04;;;;;;;;;;;;;;;23.36;67.57;99252.19;5091937;28;19998;-35
2023/06/13 06:15:31;;;;;;;;;;;;;;;22.95;67.90;99247.44;5093315;28;19912;-37
2023/06/13 06:17:57;;;;;;;;;;;;;;;22.59;70.01;99248.03;5092944;28;19948;-37
2023/06/13 06:20:22;;;;;;;;;;;;;;;22.28;71.25;99255.03;5084832;28;19912;-37
2023/06/13 06:22:47;;;;;;;;;;;;;;;22.02;71.62;99248.00;5073945;28;19912;-36
2023/06/13 06:25:19;;;;;;;;;;;;;;;21.82;73.08;99242.88;5090056;28;20389;-37
2023/06/13 06:27:44;;;;;;;;;;;;;;;21.90;73.99;99249.53;5093464;28;20388;-37
2023/06/13 06:30:10;;;;;;;;;;;;;;;22.26;72.21;99241.75;5091918;28;20141;-37
2023/06/13 06:32:35;;;;;;;;;;;;;;;22.56;70.53;99236.97;5092664;28;19934;-37
2023/06/13 06:35:03;;;;;;;;;;;;;;;22.48;71.24;99246.56;5093171;28;20006;-37
2023/06/13 06:37:28;;;;;;;;;;;;;;;22.74;70.75;99244.28;5092927;28;19984;-36
2023/06/13 06:39:54;;;;;;;;;;;;;;;23.54;69.49;99246.97;5091866;28;19912;-36
2023/06/13 06:42:19;;;;;;;;;;;;;;;23.10;68.40;99249.13;5084850;28;19916;-36
2023/06/13 06:44:44;;;;;;;;;;;;;;;23.48;67.63;99243.56;5091263;28;20057;-36
2023/06/13 06:47:10;;;;;;;;;;;;;;;23.52;66.85;99236.41;5094404;28;19920;-36
2023/06/13 06:49:35;;;;;;;;;;;;;;;23.33;67.38;99239.22;5094653;28;20281;-37
2023/06/13 06:52:00;;;;;;;;;;;;;;;23.48;65.75;99242.75;5094311;28;19977;-36
2023/06/13 06:54:26;;;;;;;;;;;;;;;22.84;69.09;99229.75;5094049;28;19966;-37
2023/06/13 06:56:51;;;;;;;;;;;;;;;23.11;66.35;99233.66;5092958;28;20247;-36
2023/06/13 06:59:16;;;;;;;;;;;;;;;23.01;67.75;99229.97;5092232;28;20407;-37
2023/06/13 07:01:42;;;;;;;;;;;;;;;23.67;65.51;99224.44;5092532;28;19919;-37
2023/06/13 07:04:07;;;;;;;;;;;;;;;23.44;65.65;99231.69;5091576;28;20059;-36
2023/06/13 07:06:32;;;;;;;;;;;;;;;23.84;65.45;99233.88;5092305;28;20024;-37
2023/06/13 07:08:58;;;;;;;;;;;;;;;24.02;65.65;99230.25;5092996;28;19920;-36
2023/06/13 07:11:23;;;;;;;;;;;;;;;23.80;64.04;99234.53;5092890;28;19924;-37
2023/06/13 07:13:48;;;;;;;;;;;;;;;24.39;64.15;99236.50;5092822;28;19912;-36
2023/06/13 07:16:13;;;;;;;;;;;;;;;23.59;64.38;99233.31;5091810;28;20452;-37
2023/06/13 07:18:39;;;;;;;;;;;;;;;23.72;64.75;99232.50;5093304;28;19918;-36
2023/06/13 07:21:04;;;;;;;;;;;;;;;23.05;65.66;99243.00;5093221;28;19912;-37
2023/06/13 07:23:30;;;;;;;;;;;;;;;22.55;67.63;99238.88;5093207;28;20437;-36
2023/06/13 07:25:56;;;;;;;;;;;;;;;22.94;67.68;99237.72;5092518;28;19912;-37
2023/06/13 07:28:21;;;;;;;;;;;;;;;23.25;66.29;99237.19;5093583;28;19915;-44
2023/06/13 07:30:46;;;;;;;;;;;;;;;22.96;66.21;99235.50;5092832;28;19974;-42
2023/06/13 07:33:12;;;;;;;;;;;;;;;23.80;64.19;99233.72;5093785;28;19922;-42
2023/06/13 07:35:38;;;;;;;;;;;;;;;24.89;61.11;99225.50;5093493;28;20011;-43
2023/06/13 07:38:03;;;;;;;;;;;;;;;24.67;59.71;99234.47;5093338;28;20367;-42
2023/06/13 07:40:28;;;;;;;;;;;;;;;23.68;61.17;99238.81;5093430;28;19912;-42
2023/06/13 07:42:54;;;;;;;;;;;;;;;23.92;61.19;99234.00;5093183;28;19912;-42
2023/06/13 07:45:20;;;;;;;;;;;;;;;24.78;59.99;99229.59;5093332;28;19912;-42
2023/06/13 07:47:45;;;;;;;;;;;;;;;25.32;56.42;99229.59;5093392;28;20307;-42
2023/06/13 07:50:11;;;;;;;;;;;;;;;25.66;55.81;99233.56;5093386;28;19955;-42
2023/06/13 07:52:36;;;;;;;;;;;;;;;26.68;53.83;99226.97;5093042;28;19916;-42
2023/06/13 07:55:02;;;;;;;;;;;;;;;26.29;52.80;99236.91;5092573;28;19919;-42
2023/06/13 07:57:27;;;;;;;;;;;;;;;26.62;53.50;99228.28;5093024;28;19922;-42
2023/06/13 07:59:53;;;;;;;;;;;;;;;27.26;50.83;99224.75;5093063;28;19952;-41
2023/06/13 08:02:19;;;;;;;;;;;;;;;26.74;51.49;99228.41;5093105;28;19912;-42
2023/06/13 08:04:44;;;;;;;;;;;;;;;26.46;53.00;99225.97;5092792;28;19918;-42
2023/06/13 08:07:10;;;;;;;;;;;;;;;26.45;51.58;99232.56;5092607;28;19916;-42
2023/06/13 08:09:35;;;;;;;;;;;;;;;26.04;54.81;99235.75;5092786;28;19920;-42
2023/06/13 08:12:01;;;;;;;;;;;;;;;26.06;53.23;99230.78;5092885;28;19976;-41
2023/06/13 08:14:26;;;;;;;;;;;;;;;26.38;52.67;99226.00;5092480;28;19913;-43
2023/06/13 08:16:51;;;;;;;;;;;;;;;27.13;50.92;99221.09;5092899;28;20426;-43
2023/06/13 08:19:17;;;;;;;;;;;;;;;26.60;51.40;99225.03;5093032;28;19916;-41
2023/06/13 08:21:42;;;;;;;;;;;;;;;27.52;51.26;99218.38;5092358;28;19967;-41
2023/06/13 08:24:07;;;;;;;;;;;;;;;27.95;48.73;99218.16;5091204;28;20319;-43
2023/06/13 08:26:33;;;;;;;;;;;;;;;28.95;46.49;99217.47;5092306;28;19912;-41
2023/06/13 08:29:02;;;;;;;;;;;;;;;29.23;45.73;99209.44;5092457;28;20065;-42
2023/06/13 08:31:27;;;;;;;;;;;;;;;29.40;44.58;99213.91;5091931;28;19951;-42
2023/06/13 08:33:55;;;;;;;;;;;;;;;28.31;46.22;99216.75;5092042;28;20380;-42
2023/06/13 08:36:21;;;;;;;;;;;;;;;27.50;48.35;99218.72;5091114;28;19919;-42
2023/06/13 08:38:46;;;;;;;;;;;;;;;26.96;50.39;99208.28;5091305;28;20323;-42
2023/06/13 08:41:11;;;;;;;;;;;;;;;27.64;49.78;99207.53;5092186;28;19912;-42
2023/06/13 08:43:38;;;;;;;;;;;;;;;28.57;48.08;99207.53;5092216;28;19934;-42
2023/06/13 08:46:03;;;;;;;;;;;;;;;29.44;44.24;99203.84;5092026;28;20282;-42
2023/06/13 08:48:32;;;;;;;;;;;;;;;29.65;43.94;99197.44;5092600;28;20007;-42
2023/06/13 08:50:59;;;;;;;;;;;;;;;30.04;44.89;99206.88;5092184;28;20376;-42
2023/06/13 08:53:27;;;;;;;;;;;;;;;30.51;41.45;99200.00;5092674;28;19912;-42
2023/06/13 08:55:54;;;;;;;;;;;;;;;29.43;43.25;99202.22;5091767;28;19916;-42
2023/06/13 08:58:22;;;;;;;;;;;;;;;29.79;43.02;99187.72;5091687;28;19919;-42
2023/06/13 09:00:51;;;;;;;;;;;;;;;29.75;43.52;99197.00;5091481;28;19912;-42
2023/06/13 09:03:17;;;;;;;;;;;;;;;29.89;41.79;99193.88;5091210;28;19912;-42
2023/06/13 09:05:42;;;;;;;;;;;;;;;30.12;41.45;99188.66;5090879;28;20004;-42
2023/06/13 09:08:09;;;;;;;;;;;;;;;30.90;41.49;99190.09;5091352;28;19968;-43
2023/06/13 09:10:35;;;;;;;;;;;;;;;30.65;41.21;99194.09;5091343;28;19912;-42
2023/06/13 09:13:02;;;;;;;;;;;;;;;31.41;39.14;99183.06;5091418;28;20358;-42
2023/06/13 09:15:27;;;;;;;;;;;;;;;31.72;38.59;99184.97;5091188;28;19920;-42
2023/06/13 09:17:53;;;;;;;;;;;;;;;32.23;38.05;99184.09;5091087;28;19926;-42
2023/06/13 09:20:19;;;;;;;;;;;;;;;31.99;38.42;99174.13;5091055;28;19911;-42
2023/06/13 09:22:45;;;;;;;;;;;;;;;31.18;38.72;99183.69;5091604;28;20350;-42
2023/06/13 09:25:16;;;;;;;;;;;;;;;30.72;39.27;99181.34;5091305;28;20312;-42
2023/06/13 09:27:41;;;;;;;;;;;;;;;30.90;40.91;99179.09;5091273;28;19916;-42
2023/06/13 09:30:08;;;;;;;;;;;;;;;31.56;40.29;99172.06;5091081;28;20368;-42
2023/06/13 09:32:33;;;;;;;;;;;;;;;31.33;39.45;99173.84;5090747;28;20003;-41
2023/06/13 09:34:58;;;;;;;;;;;;;;;31.47;39.00;99165.97;5090900;28;19962;-41
2023/06/13 09:37:27;;;;;;;;;;;;;;;30.01;40.54;99180.94;5091272;28;19916;-41
2023/06/13 09:39:53;;;;;;;;;;;;;;;29.60;42.09;99166.34;5091060;28;19928;-42
2023/06/13 09:42:22;;;;;;;;;;;;;;;31.04;40.62;99164.13;5090778;28;20243;-41
2023/06/13 09:44:52;;;;;;;;;;;;;;;31.42;38.62;99157.19;5091172;28;20003;-41
2023/06/13 09:47:22;;;;;;;;;;;;;;;30.39;40.80;99162.44;5091477;28;19919;-42
2023/06/13 09:49:50;;;;;;;;;;;;;;;30.25;40.48;99154.56;5095532;28;19912;-43
2023/06/13 09:52:16;;;;;;;;;;;;;;;28.23;44.03;99151.97;5095239;28;19916;-42
2023/06/13 09:54:43;;;;;;;;;;;;;;;28.57;42.74;99156.34;5095285;28;20308;-42
2023/06/13 09:57:10;;;;;;;;;;;;;;;29.69;39.56;99151.75;5094889;28;19912;-42
2023/06/13 09:59:35;;;;;;;;;;;;;;;29.28;40.08;99143.44;5094984;28;19912;-41
2023/06/13 10:02:01;;;;;;;;;;;;;;;28.88;41.95;99157.75;5094892;28;20284;-42
2023/06/13 10:04:26;;;;;;;;;;;;;;;28.51;41.57;99154.13;5094870;28;19919;-41
2023/06/13 10:06:52;;;;;;;;;;;;;;;29.00;40.91;99143.31;5095284;28;19912;-41
2023/06/13 10:09:17;;;;;;;;;;;;;;;29.12;41.69;99153.47;5094905;28;20296;-42
2023/06/13 10:11:46;;;;;;;;;;;;;;;28.95;42.92;99149.00;5094749;28;19915;-42
2023/06/13 10:14:22;;;;;;;;;;;;;;;29.54;42.17;99145.03;5094962;28;19924;-42
2023/06/13 10:16:51;;;;;;;;;;;;;;;28.95;42.50;99138.03;5094628;28;19918;-42
2023/06/13 10:19:19;;;;;;;;;;;;;;;28.82;42.91;99139.97;5094884;28;20022;-41
2023/06/13 10:21:45;;;;;;;;;;;;;;;28.81;43.70;99135.66;5094735;28;19911;-43
2023/06/13 10:24:12;;;;;;;;;;;;;;;29.31;43.07;99150.19;5094429;28;20364;-41
2023/06/13 10:26:42;;;;;;;;;;;;;;;29.46;41.32;99135.00;5094595;28;19939;-43
2023/06/13 10:29:17;;;;;;;;;;;;;;;30.66;40.20;99138.81;5094567;28;19916;-42
2023/06/13 10:31:46;;;;;;;;;;;;;;;31.31;37.05;99132.97;5094335;28;19924;-43
2023/06/13 10:34:30;;;;;;;;;;;;;;;31.02;36.65;99130.72;5094467;28;19939;-42
2023/06/13 10:37:31;;;;;;;;;;;;;;;30.50;38.17;99135.25;5094562;28;20354;-42
2023/06/13 10:40:09;;;;;;;;;;;;;;;30.66;37.13;99127.06;5071596;28;20012;-42
2023/06/13 10:42:47;;;;;;;;;;;;;;;29.37;39.47;99135.09;5088787;28;19981;-42
2023/06/13 10:45:19;;;;;;;;;;;;;;;29.19;39.46;99126.34;5085135;28;19917;-42
2023/06/13 10:47:45;;;;;;;;;;;;;;;29.54;39.47;99125.84;5093619;28;19919;-42
2023/06/13 10:50:13;;;;;;;;;;;;;;;29.69;38.50;99124.34;5094645;28;20003;-42
2023/06/13 10:52:42;;;;;;;;;;;;;;;29.29;38.51;99119.59;5094519;28;19916;-42
2023/06/13 10:55:11;;;;;;;;;;;;;;;29.06;39.23;99125.50;5094550;28;20431;-41
2023/06/13 10:57:46;;;;;;;;;;;;;;;29.55;39.25;99117.28;5094357;28;19916;-41
2023/06/13 11:00:21;;;;;;;;;;;;;;;29.69;39.40;99111.41;5093494;28;19915;-42
2023/06/13 11:02:47;;;;;;;;;;;;;;;30.65;37.44;99108.97;5093420;28;20006;-42
2023/06/13 11:05:12;;;;;;;;;;;;;;;31.09;36.98;99108.91;5093556;28;19955;-42
2023/06/13 11:07:45;;;;;;;;;;;;;;;30.05;37.74;99120.69;5093961;28;19920;-42
2023/06/13 11:10:15;;;;;;;;;;;;;;;30.34;36.86;99110.53;5093880;28;19912;-42
2023/06/13 11:12:41;;;;;;;;;;;;;;;30.59;37.50;99103.75;5092563;28;20362;-42
2023/06/13 11:15:19;;;;;;;;;;;;;;;31.43;37.12;99099.06;5092080;28;20364;-41
2023/06/13 11:18:00;;;;;;;;;;;;;;;31.90;34.41;99095.38;5088169;28;20386;-41
2023/06/13 11:20:25;;;;;;;;;;;;;;;30.60;35.37;99102.59;5091708;28;19970;-41
2023/06/13 11:22:51;;;;;;;;;;;;;;;30.35;35.80;99103.91;5093595;28;19947;-42
2023/06/13 11:25:16;;;;;;;;;;;;;;;29.95;36.18;99091.00;5093385;28;20359;-42
2023/06/13 11:27:41;;;;;;;;;;;;;;;29.79;36.99;99088.22;5093566;28;19919;-41
2023/06/13 11:30:07;;;;;;;;;;;;;;;30.01;37.19;99076.72;5093961;28;19916;-42
2023/06/13 11:32:34;;;;;;;;;;;;;;;30.61;36.73;99075.94;5093152;28;20061;-43
2023/06/13 11:35:01;;;;;;;;;;;;;;;30.11;37.55;99078.16;5093244;28;19927;-45
2023/06/13 11:37:29;;;;;;;;;;;;;;;30.37;37.75;99080.44;5093146;28;19977;-44
2023/06/13 11:39:56;;;;;;;;;;;;;;;30.55;37.54;99078.16;5092685;28;19927;-43
2023/06/13 11:42:22;;;;;;;;;;;;;;;30.37;38.41;99072.22;5100996;28;19924;-43
2023/06/13 11:44:47;;;;;;;;;;;;;;;30.29;37.29;99066.84;5089917;28;19933;-43
2023/06/13 11:47:13;;;;;;;;;;;;;;;30.63;36.82;99065.41;5098339;28;20032;-46
2023/06/13 11:49:38;;;;;;;;;;;;;;;30.08;36.57;99070.59;5101193;28;19919;-48
2023/06/13 11:52:15;;;;;;;;;;;;;;;29.34;38.12;99067.28;5095241;28;19916;-47
2023/06/13 11:54:46;;;;;;;;;;;;;;;29.83;38.24;99064.44;5090334;28;19962;-46
2023/06/13 11:57:12;;;;;;;;;;;;;;;29.53;38.14;99072.97;5092931;28;20364;-46
2023/06/13 11:59:39;;;;;;;;;;;;;;;29.75;38.13;99060.69;5089680;28;19912;-48
2023/06/13 12:02:04;;;;;;;;;;;;;;;30.35;37.47;99060.78;5092718;28;20407;-46
2023/06/13 12:04:30;;;;;;;;;;;;;;;31.15;35.68;99052.53;5092423;28;19931;-46
2023/06/13 12:06:55;;;;;;;;;;;;;;;31.80;34.53;99051.97;5090003;28;19920;-42
2023/06/13 12:09:21;;;;;;;;;;;;;;;32.32;33.34;99053.34;5092097;28;19924;-42
2023/06/13 12:11:46;;;;;;;;;;;;;;;31.76;34.20;99051.13;5090819;28;19923;-42
2023/06/13 12:14:12;;;;;;;;;;;;;;;32.20;33.64;99044.50;5091670;28;19913;-43
2023/06/13 12:16:38;;;;;;;;;;;;;;;30.95;35.94;99048.94;5091554;28;19915;-44
2023/06/13 12:19:04;;;;;;;;;;;;;;;30.75;35.37;99046.09;5091874;28;19912;-43
2023/06/13 12:21:39;;;;;;;;;;;;;;;31.24;34.65;99042.13;5091307;28;20046;-43
2023/06/13 12:24:08;;;;;;;;;;;;;;;29.66;37.24;99057.28;5091352;28;20012;-42
2023/06/13 12:26:35;;;;;;;;;;;;;;;29.57;37.91;99049.22;5091087;28;19912;-41
2023/06/13 12:29:06;;;;;;;;;;;;;;;30.28;36.97;99049.59;5090628;28;19985;-42
2023/06/13 12:31:38;;;;;;;;;;;;;;;30.20;36.81;99040.38;5089490;28;20019;-42
2023/06/13 12:34:07;;;;;;;;;;;;;;;30.75;36.55;99039.81;5089598;28;19912;-43
2023/06/13 12:36:44;;;;;;;;;;;;;;;30.47;36.97;99029.72;5090550;28;19920;-43
2023/06/13 12:39:09;;;;;;;;;;;;;;;30.71;37.57;99026.00;5090651;28;20411;-40
2023/06/13 12:41:35;;;;;;;;;;;;;;;30.80;35.52;99023.84;5090917;28;19913;-41
2023/06/13 12:44:01;;;;;;;;;;;;;;;30.62;36.12;99019.09;5091228;28;19919;-41
2023/06/13 12:46:26;;;;;;;;;;;;;;;30.33;36.79;99016.44;5091852;28;19912;-41